JBU210 SKBO-MROC
Flight info
| Callsign | JBU210 |
|---|---|
| Flight time | 1h 38m |
| Altitude | 36000 |
| Route | DCT URODU UL423 ISEBA CUARE3I |
| Aircraft | A320/M-SDE3FGHIRWY/LB1 |
Departure
| Time | 2026-05-07 23:17 |
|---|---|
| Airport | El Dorado International Airport (SKBO) |
Arrival
| Time | 2026-05-08 00:55 |
|---|---|
| Airport | Juan Santamaría International Airport (MROC) |
| Time | Latitude | Longitude | Altitude | Speed | Heading |
|---|---|---|---|---|---|
| 2026-05-07 22:44 | 4.70023 | -74.14179 | 8370 ft | 0 kts | 217° |
| 2026-05-07 23:03 | 4.70028 | -74.14175 | 8370 ft | 2 kts | 217° |
| 2026-05-07 23:03 | 4.70042 | -74.14165 | 8370 ft | 3 kts | 217° |
| 2026-05-07 23:03 | 4.70058 | -74.14153 | 8370 ft | 3 kts | 212° |
| 2026-05-07 23:03 | 4.70072 | -74.14145 | 8370 ft | 2 kts | 198° |
| 2026-05-07 23:04 | 4.70092 | -74.14141 | 8370 ft | 3 kts | 172° |
| 2026-05-07 23:05 | 4.70093 | -74.14141 | 8370 ft | 2 kts | 169° |
| 2026-05-07 23:05 | 4.70114 | -74.14150 | 8370 ft | 3 kts | 137° |
| 2026-05-07 23:05 | 4.70127 | -74.14165 | 8370 ft | 3 kts | 122° |
| 2026-05-07 23:06 | 4.70138 | -74.14183 | 8370 ft | 3 kts | 121° |
| 2026-05-07 23:06 | 4.70144 | -74.14193 | 8370 ft | 0 kts | 127° |
| 2026-05-07 23:06 | 4.70136 | -74.14182 | 8370 ft | 3 kts | 127° |
| 2026-05-07 23:06 | 4.70124 | -74.14166 | 8370 ft | 3 kts | 127° |
| 2026-05-07 23:07 | 4.70112 | -74.14150 | 8370 ft | 2 kts | 127° |
| 2026-05-07 23:07 | 4.70108 | -74.14145 | 8370 ft | 0 kts | 127° |
| 2026-05-07 23:09 | 4.70089 | -74.14120 | 8370 ft | 12 kts | 127° |
| 2026-05-07 23:09 | 4.70022 | -74.14031 | 8370 ft | 20 kts | 127° |
| 2026-05-07 23:09 | 4.69921 | -74.13899 | 8370 ft | 25 kts | 126° |
| 2026-05-07 23:09 | 4.69840 | -74.13776 | 8370 ft | 13 kts | 90° |
| 2026-05-07 23:10 | 4.69863 | -74.13706 | 8370 ft | 11 kts | 108° |
| 2026-05-07 23:10 | 4.69821 | -74.13646 | 8370 ft | 10 kts | 127° |
| 2026-05-07 23:10 | 4.69774 | -74.13583 | 8370 ft | 13 kts | 127° |
| 2026-05-07 23:10 | 4.69721 | -74.13513 | 8370 ft | 12 kts | 127° |
| 2026-05-07 23:11 | 4.69673 | -74.13449 | 8370 ft | 11 kts | 127° |
| 2026-05-07 23:11 | 4.69629 | -74.13390 | 8370 ft | 10 kts | 127° |
| 2026-05-07 23:11 | 4.69587 | -74.13334 | 8369 ft | 10 kts | 127° |
| 2026-05-07 23:11 | 4.69544 | -74.13277 | 8370 ft | 11 kts | 127° |
| 2026-05-07 23:12 | 4.69489 | -74.13205 | 8369 ft | 14 kts | 128° |
| 2026-05-07 23:12 | 4.69422 | -74.13119 | 8369 ft | 17 kts | 128° |
| 2026-05-07 23:12 | 4.69346 | -74.13018 | 8370 ft | 19 kts | 127° |
| 2026-05-07 23:12 | 4.69264 | -74.12909 | 8369 ft | 22 kts | 127° |
| 2026-05-07 23:13 | 4.69166 | -74.12779 | 8370 ft | 24 kts | 127° |
| 2026-05-07 23:13 | 4.69100 | -74.12691 | 8369 ft | 12 kts | 128° |
| 2026-05-07 23:13 | 4.69072 | -74.12666 | 8369 ft | 2 kts | 54° |
| 2026-05-07 23:13 | 4.69096 | -74.12687 | 8369 ft | 12 kts | 312° |
| 2026-05-07 23:14 | 4.69170 | -74.12786 | 8370 ft | 23 kts | 306° |
| 2026-05-07 23:14 | 4.69270 | -74.12922 | 8369 ft | 25 kts | 306° |
| 2026-05-07 23:14 | 4.69336 | -74.12934 | 8369 ft | 11 kts | 71° |
| 2026-05-07 23:14 | 4.69308 | -74.12849 | 8369 ft | 15 kts | 124° |
| 2026-05-07 23:15 | 4.69240 | -74.12761 | 8369 ft | 16 kts | 128° |
| 2026-05-07 23:15 | 4.69204 | -74.12658 | 8369 ft | 17 kts | 72° |
| 2026-05-07 23:15 | 4.69235 | -74.12548 | 8369 ft | 16 kts | 75° |
| 2026-05-07 23:15 | 4.69306 | -74.12525 | 8369 ft | 12 kts | 320° |
| 2026-05-07 23:16 | 4.69329 | -74.12553 | 8369 ft | 0 kts | 305° |
| 2026-05-07 23:16 | 4.69340 | -74.12568 | 8368 ft | 21 kts | 307° |
| 2026-05-07 23:16 | 4.69581 | -74.12886 | 8367 ft | 93 kts | 307° |
| 2026-05-07 23:16 | 4.70097 | -74.13565 | 8369 ft | 149 kts | 307° |
| 2026-05-07 23:17 | 4.70829 | -74.14534 | 8373 ft | 196 kts | 307° |
| 2026-05-07 23:17 | 4.71660 | -74.15636 | 9124 ft | 193 kts | 308° |
| 2026-05-07 23:17 | 4.72452 | -74.16680 | 9974 ft | 184 kts | 308° |
| 2026-05-07 23:17 | 4.73185 | -74.17697 | 10621 ft | 179 kts | 301° |
| 2026-05-07 23:18 | 4.73806 | -74.18825 | 10804 ft | 192 kts | 297° |
| 2026-05-07 23:18 | 4.74431 | -74.20069 | 10933 ft | 208 kts | 297° |
| 2026-05-07 23:18 | 4.75109 | -74.21422 | 11069 ft | 227 kts | 297° |
| 2026-05-07 23:18 | 4.75858 | -74.22898 | 11181 ft | 247 kts | 297° |
| 2026-05-07 23:19 | 4.76685 | -74.24498 | 11266 ft | 270 kts | 298° |
| 2026-05-07 23:19 | 4.77600 | -74.26240 | 11416 ft | 294 kts | 298° |
| 2026-05-07 23:19 | 4.78595 | -74.28117 | 11534 ft | 317 kts | 298° |
| 2026-05-07 23:19 | 4.79666 | -74.30130 | 11684 ft | 336 kts | 298° |
| 2026-05-07 23:20 | 4.80787 | -74.32229 | 12134 ft | 344 kts | 299° |
| 2026-05-07 23:20 | 4.81923 | -74.34352 | 12683 ft | 348 kts | 299° |
| 2026-05-07 23:20 | 4.83073 | -74.36500 | 13169 ft | 353 kts | 299° |
| 2026-05-07 23:20 | 4.84264 | -74.38723 | 13638 ft | 359 kts | 299° |
| 2026-05-07 23:21 | 4.85438 | -74.40909 | 14137 ft | 363 kts | 299° |
| 2026-05-07 23:21 | 4.86634 | -74.43140 | 14653 ft | 364 kts | 299° |
| 2026-05-07 23:21 | 4.87832 | -74.45384 | 15130 ft | 367 kts | 299° |
| 2026-05-07 23:21 | 4.89056 | -74.47683 | 15617 ft | 371 kts | 299° |
| 2026-05-07 23:22 | 4.90279 | -74.49974 | 16068 ft | 374 kts | 299° |
| 2026-05-07 23:22 | 4.91509 | -74.52278 | 16586 ft | 376 kts | 299° |
| 2026-05-07 23:22 | 4.92752 | -74.54600 | 17180 ft | 377 kts | 299° |
| 2026-05-07 23:22 | 4.93995 | -74.56917 | 17721 ft | 379 kts | 298° |
| 2026-05-07 23:23 | 4.95243 | -74.59248 | 18219 ft | 382 kts | 298° |
| 2026-05-07 23:23 | 4.96499 | -74.61605 | 18639 ft | 385 kts | 299° |
| 2026-05-07 23:23 | 4.97769 | -74.63992 | 19057 ft | 388 kts | 298° |
| 2026-05-07 23:23 | 4.99045 | -74.66386 | 19500 ft | 389 kts | 298° |
| 2026-05-07 23:24 | 5.00326 | -74.68784 | 19944 ft | 391 kts | 299° |
| 2026-05-07 23:24 | 5.01618 | -74.71197 | 20378 ft | 394 kts | 299° |
| 2026-05-07 23:24 | 5.02922 | -74.73630 | 20711 ft | 399 kts | 299° |
| 2026-05-07 23:24 | 5.04239 | -74.76092 | 21151 ft | 401 kts | 299° |
| 2026-05-07 23:25 | 5.05560 | -74.78562 | 21601 ft | 403 kts | 299° |
| 2026-05-07 23:25 | 5.06887 | -74.81043 | 22089 ft | 404 kts | 299° |
| 2026-05-07 23:25 | 5.08215 | -74.83530 | 22498 ft | 406 kts | 299° |
| 2026-05-07 23:25 | 5.09550 | -74.86035 | 22921 ft | 409 kts | 299° |
| 2026-05-07 23:26 | 5.10895 | -74.88557 | 23352 ft | 411 kts | 299° |
| 2026-05-07 23:26 | 5.12246 | -74.91092 | 23715 ft | 413 kts | 299° |
| 2026-05-07 23:26 | 5.13604 | -74.93641 | 24070 ft | 415 kts | 299° |
| 2026-05-07 23:26 | 5.14970 | -74.96204 | 24425 ft | 418 kts | 299° |
| 2026-05-07 23:27 | 5.17716 | -75.01355 | 25268 ft | 421 kts | 299° |
| 2026-05-07 23:27 | 5.19097 | -75.03948 | 25624 ft | 422 kts | 299° |
| 2026-05-07 23:27 | 5.20483 | -75.06553 | 25984 ft | 424 kts | 299° |
| 2026-05-07 23:28 | 5.21877 | -75.09171 | 26344 ft | 426 kts | 298° |
| 2026-05-07 23:28 | 5.23278 | -75.11796 | 26681 ft | 428 kts | 298° |
| 2026-05-07 23:28 | 5.24687 | -75.14432 | 26998 ft | 430 kts | 298° |
| 2026-05-07 23:28 | 5.26102 | -75.17079 | 27310 ft | 432 kts | 298° |
| 2026-05-07 23:29 | 5.27523 | -75.19737 | 27618 ft | 433 kts | 298° |
| 2026-05-07 23:29 | 5.28952 | -75.22412 | 27943 ft | 435 kts | 298° |
| 2026-05-07 23:29 | 5.30385 | -75.25099 | 28247 ft | 437 kts | 298° |
| 2026-05-07 23:29 | 5.31819 | -75.27795 | 28533 ft | 439 kts | 298° |
| 2026-05-07 23:30 | 5.33259 | -75.30502 | 28839 ft | 441 kts | 298° |
| 2026-05-07 23:30 | 5.34707 | -75.33220 | 29143 ft | 443 kts | 298° |
| 2026-05-07 23:30 | 5.36166 | -75.35956 | 29433 ft | 445 kts | 298° |
| 2026-05-07 23:30 | 5.37627 | -75.38699 | 29731 ft | 447 kts | 298° |
| 2026-05-07 23:31 | 5.39112 | -75.41492 | 30036 ft | 449 kts | 298° |
| 2026-05-07 23:31 | 5.40582 | -75.44261 | 30285 ft | 451 kts | 298° |
| 2026-05-07 23:31 | 5.42060 | -75.47043 | 30535 ft | 453 kts | 298° |
| 2026-05-07 23:31 | 5.43545 | -75.49833 | 30764 ft | 455 kts | 298° |
| 2026-05-07 23:32 | 5.45041 | -75.52639 | 31024 ft | 456 kts | 298° |
| 2026-05-07 23:32 | 5.46537 | -75.55447 | 31279 ft | 457 kts | 298° |
| 2026-05-07 23:32 | 5.48035 | -75.58263 | 31555 ft | 458 kts | 298° |
| 2026-05-07 23:32 | 5.49538 | -75.61093 | 31819 ft | 459 kts | 298° |
| 2026-05-07 23:33 | 5.51043 | -75.63919 | 32112 ft | 459 kts | 298° |
| 2026-05-07 23:33 | 5.52039 | -75.65787 | 32373 ft | 457 kts | 297° |
| 2026-05-07 23:33 | 5.53531 | -75.68587 | 32797 ft | 454 kts | 297° |
| 2026-05-07 23:33 | 5.55015 | -75.71373 | 33213 ft | 451 kts | 297° |
| 2026-05-07 23:34 | 5.56489 | -75.74145 | 33582 ft | 451 kts | 297° |
| 2026-05-07 23:34 | 5.57962 | -75.76926 | 33934 ft | 450 kts | 297° |
| 2026-05-07 23:34 | 5.59428 | -75.79689 | 34271 ft | 449 kts | 297° |
| 2026-05-07 23:34 | 5.60894 | -75.82449 | 34570 ft | 448 kts | 297° |
| 2026-05-07 23:35 | 5.62355 | -75.85204 | 34881 ft | 446 kts | 297° |
| 2026-05-07 23:35 | 5.63812 | -75.87948 | 35189 ft | 444 kts | 297° |
| 2026-05-07 23:35 | 5.65267 | -75.90683 | 35473 ft | 443 kts | 297° |
| 2026-05-07 23:35 | 5.66717 | -75.93409 | 35775 ft | 443 kts | 297° |
| 2026-05-07 23:36 | 5.68169 | -75.96135 | 35929 ft | 443 kts | 297° |
| 2026-05-07 23:36 | 5.69611 | -75.98845 | 35971 ft | 435 kts | 297° |
| 2026-05-07 23:36 | 5.72474 | -76.04232 | 35974 ft | 440 kts | 297° |
| 2026-05-07 23:37 | 5.75386 | -76.09728 | 35978 ft | 452 kts | 297° |
| 2026-05-07 23:37 | 5.78368 | -76.15363 | 35968 ft | 461 kts | 297° |
| 2026-05-07 23:38 | 5.81384 | -76.21050 | 35976 ft | 462 kts | 298° |
| 2026-05-07 23:38 | 5.84409 | -76.26752 | 35970 ft | 462 kts | 298° |
| 2026-05-07 23:39 | 5.87465 | -76.32524 | 35963 ft | 462 kts | 298° |
| 2026-05-07 23:39 | 5.90484 | -76.38226 | 35935 ft | 462 kts | 298° |
| 2026-05-07 23:40 | 5.93506 | -76.43931 | 35934 ft | 463 kts | 298° |
| 2026-05-07 23:40 | 5.96554 | -76.49688 | 35937 ft | 464 kts | 298° |
| 2026-05-07 23:41 | 5.99590 | -76.55412 | 35912 ft | 465 kts | 298° |
| 2026-05-07 23:41 | 6.02629 | -76.61150 | 35914 ft | 466 kts | 298° |
| 2026-05-07 23:42 | 6.05675 | -76.66900 | 35908 ft | 466 kts | 298° |
| 2026-05-07 23:42 | 6.08710 | -76.72653 | 35916 ft | 466 kts | 298° |
| 2026-05-07 23:43 | 6.11758 | -76.78417 | 35920 ft | 467 kts | 298° |
| 2026-05-07 23:43 | 6.14804 | -76.84173 | 35925 ft | 467 kts | 298° |
| 2026-05-07 23:44 | 6.17851 | -76.89940 | 35920 ft | 467 kts | 298° |
| 2026-05-07 23:44 | 6.20893 | -76.95700 | 35913 ft | 467 kts | 298° |
| 2026-05-07 23:45 | 6.23935 | -77.01464 | 35921 ft | 467 kts | 298° |
| 2026-05-07 23:45 | 6.26997 | -77.07274 | 35902 ft | 467 kts | 298° |
| 2026-05-07 23:46 | 6.30047 | -77.13038 | 35907 ft | 467 kts | 298° |
| 2026-05-07 23:46 | 6.33124 | -77.18854 | 35920 ft | 468 kts | 298° |
| 2026-05-07 23:47 | 6.36173 | -77.24639 | 35923 ft | 469 kts | 298° |
| 2026-05-07 23:47 | 6.39218 | -77.30422 | 35919 ft | 468 kts | 298° |
| 2026-05-07 23:48 | 6.42265 | -77.36218 | 35925 ft | 468 kts | 298° |
| 2026-05-07 23:48 | 6.45335 | -77.42038 | 35919 ft | 468 kts | 298° |
| 2026-05-07 23:49 | 6.48386 | -77.47824 | 35925 ft | 468 kts | 298° |
| 2026-05-07 23:49 | 6.51435 | -77.53608 | 35912 ft | 468 kts | 298° |
| 2026-05-07 23:50 | 6.54479 | -77.59395 | 35917 ft | 468 kts | 298° |
| 2026-05-07 23:50 | 6.57531 | -77.65185 | 35924 ft | 468 kts | 298° |
| 2026-05-07 23:51 | 6.60568 | -77.70976 | 35917 ft | 468 kts | 298° |
| 2026-05-07 23:51 | 6.63603 | -77.76768 | 35915 ft | 468 kts | 298° |
| 2026-05-07 23:52 | 6.66648 | -77.82554 | 35914 ft | 468 kts | 298° |
| 2026-05-07 23:52 | 6.69692 | -77.88342 | 35918 ft | 468 kts | 298° |
| 2026-05-07 23:53 | 6.72732 | -77.94126 | 35911 ft | 468 kts | 298° |
| 2026-05-07 23:53 | 6.75778 | -77.99911 | 35905 ft | 468 kts | 298° |
| 2026-05-07 23:54 | 6.78813 | -78.05684 | 35908 ft | 468 kts | 298° |
| 2026-05-07 23:54 | 6.81869 | -78.11527 | 35915 ft | 468 kts | 297° |
| 2026-05-07 23:55 | 6.84896 | -78.17315 | 35912 ft | 468 kts | 298° |
| 2026-05-07 23:55 | 6.87936 | -78.23106 | 35915 ft | 468 kts | 298° |
| 2026-05-07 23:56 | 6.90980 | -78.28898 | 35910 ft | 468 kts | 298° |
| 2026-05-07 23:56 | 6.94015 | -78.34682 | 35917 ft | 468 kts | 298° |
| 2026-05-07 23:57 | 6.97045 | -78.40484 | 35911 ft | 468 kts | 297° |
| 2026-05-07 23:57 | 7.00068 | -78.46282 | 35911 ft | 468 kts | 298° |
| 2026-05-07 23:58 | 7.01606 | -78.49218 | 35910 ft | 468 kts | 298° |
| 2026-05-07 23:58 | 7.05732 | -78.57077 | 35912 ft | 468 kts | 298° |
| 2026-05-07 23:59 | 7.08766 | -78.62875 | 35907 ft | 468 kts | 298° |
| 2026-05-07 23:59 | 7.11821 | -78.68708 | 35915 ft | 468 kts | 298° |
| 2026-05-08 00:00 | 7.14985 | -78.74432 | 35922 ft | 467 kts | 300° |
| 2026-05-08 00:00 | 7.18341 | -78.80033 | 35919 ft | 467 kts | 301° |
| 2026-05-08 00:01 | 7.21737 | -78.85656 | 35915 ft | 467 kts | 301° |
| 2026-05-08 00:01 | 7.25053 | -78.91275 | 35913 ft | 467 kts | 300° |
| 2026-05-08 00:02 | 7.28348 | -78.96912 | 35915 ft | 467 kts | 300° |
| 2026-05-08 00:02 | 7.31641 | -79.02550 | 35913 ft | 467 kts | 300° |
| 2026-05-08 00:03 | 7.34938 | -79.08177 | 35908 ft | 467 kts | 300° |
| 2026-05-08 00:03 | 7.38242 | -79.13813 | 35905 ft | 467 kts | 300° |
| 2026-05-08 00:04 | 7.41546 | -79.19448 | 35913 ft | 467 kts | 300° |
| 2026-05-08 00:04 | 7.44852 | -79.25085 | 35917 ft | 467 kts | 300° |
| 2026-05-08 00:05 | 7.48152 | -79.30731 | 35909 ft | 468 kts | 301° |
| 2026-05-08 00:05 | 7.51458 | -79.36374 | 35917 ft | 468 kts | 301° |
| 2026-05-08 00:06 | 7.54757 | -79.42013 | 35902 ft | 468 kts | 301° |
| 2026-05-08 00:06 | 7.58061 | -79.47663 | 35907 ft | 468 kts | 301° |
| 2026-05-08 00:07 | 7.61375 | -79.53320 | 35903 ft | 468 kts | 301° |
| 2026-05-08 00:07 | 7.64682 | -79.58976 | 35910 ft | 468 kts | 301° |
| 2026-05-08 00:08 | 7.67988 | -79.64641 | 35906 ft | 468 kts | 301° |
| 2026-05-08 00:08 | 7.71292 | -79.70312 | 35917 ft | 469 kts | 301° |
| 2026-05-08 00:09 | 7.74604 | -79.75972 | 35917 ft | 469 kts | 301° |
| 2026-05-08 00:09 | 7.77936 | -79.81671 | 35900 ft | 469 kts | 301° |
| 2026-05-08 00:10 | 7.81247 | -79.87343 | 35918 ft | 469 kts | 301° |
| 2026-05-08 00:10 | 7.84532 | -79.92977 | 35911 ft | 469 kts | 301° |
| 2026-05-08 00:11 | 7.87839 | -79.98655 | 35910 ft | 469 kts | 301° |
| 2026-05-08 00:11 | 7.91157 | -80.04335 | 35917 ft | 470 kts | 301° |
| 2026-05-08 00:12 | 7.94472 | -80.10021 | 35911 ft | 470 kts | 301° |
| 2026-05-08 00:12 | 7.97775 | -80.15708 | 35911 ft | 470 kts | 301° |
| 2026-05-08 00:13 | 8.01111 | -80.21436 | 35907 ft | 470 kts | 301° |
| 2026-05-08 00:13 | 8.04427 | -80.27133 | 35910 ft | 470 kts | 301° |
| 2026-05-08 00:14 | 8.07733 | -80.32822 | 35916 ft | 470 kts | 301° |
| 2026-05-08 00:14 | 8.11043 | -80.38517 | 35914 ft | 470 kts | 301° |
| 2026-05-08 00:15 | 8.14353 | -80.44208 | 35916 ft | 470 kts | 301° |
| 2026-05-08 00:15 | 8.17661 | -80.49902 | 35912 ft | 470 kts | 301° |
| 2026-05-08 00:16 | 8.20971 | -80.55602 | 35921 ft | 470 kts | 301° |
| 2026-05-08 00:16 | 8.24284 | -80.61309 | 35925 ft | 471 kts | 301° |
| 2026-05-08 00:17 | 8.27593 | -80.67016 | 35930 ft | 471 kts | 301° |
| 2026-05-08 00:17 | 8.30899 | -80.72718 | 35922 ft | 471 kts | 301° |
| 2026-05-08 00:18 | 8.34214 | -80.78429 | 35935 ft | 471 kts | 301° |
| 2026-05-08 00:18 | 8.37531 | -80.84148 | 35936 ft | 471 kts | 301° |
| 2026-05-08 00:19 | 8.40816 | -80.89836 | 35947 ft | 471 kts | 301° |
| 2026-05-08 00:19 | 8.44147 | -80.95589 | 35961 ft | 471 kts | 301° |
| 2026-05-08 00:20 | 8.47459 | -81.01299 | 35954 ft | 471 kts | 301° |
| 2026-05-08 00:20 | 8.50764 | -81.07020 | 35967 ft | 471 kts | 301° |
| 2026-05-08 00:21 | 8.54070 | -81.12739 | 35958 ft | 471 kts | 301° |
| 2026-05-08 00:21 | 8.57378 | -81.18456 | 35972 ft | 471 kts | 301° |
| 2026-05-08 00:22 | 8.60685 | -81.24175 | 35981 ft | 471 kts | 301° |
| 2026-05-08 00:22 | 8.63986 | -81.29883 | 35977 ft | 471 kts | 301° |
| 2026-05-08 00:23 | 8.67281 | -81.35605 | 35982 ft | 471 kts | 301° |
| 2026-05-08 00:23 | 8.70024 | -81.40371 | 35985 ft | 471 kts | 301° |
| 2026-05-08 00:24 | 8.73324 | -81.46083 | 35980 ft | 471 kts | 301° |
| 2026-05-08 00:24 | 8.76617 | -81.51793 | 35990 ft | 471 kts | 301° |
| 2026-05-08 00:25 | 8.79913 | -81.57515 | 35987 ft | 471 kts | 301° |
| 2026-05-08 00:25 | 8.83231 | -81.63268 | 35986 ft | 471 kts | 301° |
| 2026-05-08 00:26 | 8.86531 | -81.68991 | 35978 ft | 471 kts | 301° |
| 2026-05-08 00:26 | 8.89830 | -81.74726 | 35970 ft | 472 kts | 301° |
| 2026-05-08 00:27 | 8.93132 | -81.80466 | 35974 ft | 472 kts | 301° |
| 2026-05-08 00:27 | 8.96431 | -81.86211 | 35971 ft | 473 kts | 301° |
| 2026-05-08 00:28 | 8.99733 | -81.91962 | 35976 ft | 473 kts | 301° |
| 2026-05-08 00:28 | 9.03048 | -81.97721 | 35959 ft | 473 kts | 301° |
| 2026-05-08 00:29 | 9.06357 | -82.03481 | 35961 ft | 473 kts | 301° |
| 2026-05-08 00:29 | 9.09657 | -82.09242 | 35973 ft | 473 kts | 301° |
| 2026-05-08 00:30 | 9.12968 | -82.15008 | 35977 ft | 473 kts | 301° |
| 2026-05-08 00:30 | 9.16273 | -82.20776 | 35968 ft | 474 kts | 301° |
| 2026-05-08 00:31 | 9.19584 | -82.26550 | 35971 ft | 474 kts | 301° |
| 2026-05-08 00:31 | 9.22887 | -82.32316 | 35969 ft | 474 kts | 301° |
| 2026-05-08 00:32 | 9.26187 | -82.38080 | 35969 ft | 474 kts | 301° |
| 2026-05-08 00:32 | 9.29491 | -82.43855 | 35985 ft | 473 kts | 301° |
| 2026-05-08 00:33 | 9.32790 | -82.49620 | 35966 ft | 473 kts | 301° |
| 2026-05-08 00:33 | 9.36095 | -82.55385 | 35966 ft | 473 kts | 301° |
| 2026-05-08 00:34 | 9.39384 | -82.61156 | 35980 ft | 473 kts | 301° |
| 2026-05-08 00:34 | 9.42683 | -82.66933 | 35980 ft | 474 kts | 301° |
| 2026-05-08 00:35 | 9.45984 | -82.72703 | 35990 ft | 474 kts | 301° |
| 2026-05-08 00:35 | 9.49282 | -82.78485 | 35972 ft | 474 kts | 301° |
| 2026-05-08 00:36 | 9.52590 | -82.84280 | 35974 ft | 475 kts | 301° |
| 2026-05-08 00:36 | 9.55037 | -82.90472 | 35975 ft | 474 kts | 285° |
| 2026-05-08 00:37 | 9.55845 | -82.93674 | 35959 ft | 462 kts | 285° |
| 2026-05-08 00:37 | 9.56637 | -82.96784 | 35922 ft | 450 kts | 285° |
| 2026-05-08 00:37 | 9.57420 | -82.99836 | 35430 ft | 447 kts | 285° |
| 2026-05-08 00:38 | 9.59043 | -83.06165 | 32462 ft | 472 kts | 285° |
| 2026-05-08 00:38 | 9.59859 | -83.09372 | 31495 ft | 467 kts | 285° |
| 2026-05-08 00:38 | 9.60684 | -83.12539 | 30608 ft | 461 kts | 289° |
| 2026-05-08 00:38 | 9.61739 | -83.15579 | 29719 ft | 454 kts | 291° |
| 2026-05-08 00:39 | 9.62803 | -83.18571 | 28769 ft | 449 kts | 291° |
| 2026-05-08 00:39 | 9.63852 | -83.21521 | 27856 ft | 442 kts | 291° |
| 2026-05-08 00:39 | 9.64892 | -83.24439 | 26979 ft | 437 kts | 291° |
| 2026-05-08 00:39 | 9.65916 | -83.27320 | 26142 ft | 432 kts | 291° |
| 2026-05-08 00:40 | 9.66929 | -83.30169 | 25437 ft | 426 kts | 291° |
| 2026-05-08 00:40 | 9.67914 | -83.32949 | 25046 ft | 412 kts | 291° |
| 2026-05-08 00:40 | 9.68866 | -83.35640 | 24609 ft | 400 kts | 291° |
| 2026-05-08 00:40 | 9.69791 | -83.38256 | 24191 ft | 388 kts | 292° |
| 2026-05-08 00:41 | 9.70689 | -83.40795 | 23772 ft | 378 kts | 292° |
| 2026-05-08 00:41 | 9.71567 | -83.43272 | 23323 ft | 368 kts | 292° |
| 2026-05-08 00:41 | 9.72418 | -83.45676 | 22905 ft | 359 kts | 292° |
| 2026-05-08 00:41 | 9.73268 | -83.48065 | 22514 ft | 360 kts | 292° |
| 2026-05-08 00:42 | 9.74117 | -83.50447 | 22107 ft | 359 kts | 291° |
| 2026-05-08 00:42 | 9.74757 | -83.52883 | 21704 ft | 358 kts | 279° |
| 2026-05-08 00:42 | 9.74931 | -83.55394 | 21297 ft | 356 kts | 268° |
| 2026-05-08 00:42 | 9.74756 | -83.57889 | 20900 ft | 356 kts | 265° |
| 2026-05-08 00:43 | 9.74569 | -83.60399 | 20485 ft | 357 kts | 266° |
| 2026-05-08 00:43 | 9.74391 | -83.62912 | 20081 ft | 358 kts | 265° |
| 2026-05-08 00:43 | 9.74220 | -83.65406 | 19665 ft | 351 kts | 266° |
| 2026-05-08 00:43 | 9.74054 | -83.67854 | 19266 ft | 345 kts | 265° |
| 2026-05-08 00:44 | 9.73887 | -83.70300 | 18868 ft | 342 kts | 265° |
| 2026-05-08 00:44 | 9.73722 | -83.72692 | 18423 ft | 340 kts | 265° |
| 2026-05-08 00:44 | 9.73556 | -83.75064 | 17989 ft | 334 kts | 265° |
| 2026-05-08 00:44 | 9.73389 | -83.77421 | 17603 ft | 334 kts | 265° |
| 2026-05-08 00:45 | 9.73218 | -83.79767 | 17220 ft | 333 kts | 265° |
| 2026-05-08 00:45 | 9.73046 | -83.82110 | 16837 ft | 335 kts | 265° |
| 2026-05-08 00:45 | 9.72874 | -83.84463 | 16450 ft | 335 kts | 265° |
| 2026-05-08 00:45 | 9.72699 | -83.86832 | 16057 ft | 337 kts | 265° |
| 2026-05-08 00:46 | 9.72521 | -83.89198 | 15662 ft | 337 kts | 265° |
| 2026-05-08 00:46 | 9.72337 | -83.91573 | 15251 ft | 338 kts | 265° |
| 2026-05-08 00:46 | 9.72152 | -83.93952 | 14855 ft | 340 kts | 265° |
| 2026-05-08 00:46 | 9.71964 | -83.96341 | 14462 ft | 340 kts | 265° |
| 2026-05-08 00:47 | 9.71777 | -83.98734 | 14065 ft | 341 kts | 265° |
| 2026-05-08 00:47 | 9.71592 | -84.01121 | 13711 ft | 338 kts | 265° |
| 2026-05-08 00:47 | 9.71408 | -84.03501 | 13358 ft | 336 kts | 265° |
| 2026-05-08 00:47 | 9.71229 | -84.05835 | 12966 ft | 329 kts | 265° |
| 2026-05-08 00:48 | 9.71049 | -84.08152 | 12486 ft | 329 kts | 265° |
| 2026-05-08 00:48 | 9.70871 | -84.10453 | 12109 ft | 329 kts | 265° |
| 2026-05-08 00:48 | 9.70694 | -84.12733 | 11843 ft | 322 kts | 265° |
| 2026-05-08 00:48 | 9.70521 | -84.14992 | 11505 ft | 320 kts | 265° |
| 2026-05-08 00:49 | 9.70350 | -84.17232 | 11182 ft | 318 kts | 265° |
| 2026-05-08 00:49 | 9.70190 | -84.19456 | 10859 ft | 315 kts | 268° |
| 2026-05-08 00:49 | 9.70464 | -84.21666 | 10510 ft | 312 kts | 287° |
| 2026-05-08 00:49 | 9.71364 | -84.23613 | 10210 ft | 308 kts | 305° |
| 2026-05-08 00:50 | 9.72838 | -84.25206 | 9877 ft | 306 kts | 323° |
| 2026-05-08 00:50 | 9.74563 | -84.26454 | 9522 ft | 304 kts | 326° |
| 2026-05-08 00:50 | 9.76289 | -84.27691 | 9184 ft | 303 kts | 325° |
| 2026-05-08 00:50 | 9.77997 | -84.28922 | 8865 ft | 300 kts | 325° |
| 2026-05-08 00:51 | 9.79693 | -84.30152 | 8547 ft | 299 kts | 325° |
| 2026-05-08 00:51 | 9.81380 | -84.31376 | 8224 ft | 297 kts | 326° |
| 2026-05-08 00:51 | 9.83042 | -84.32579 | 7933 ft | 293 kts | 326° |
| 2026-05-08 00:51 | 9.84754 | -84.33783 | 7262 ft | 306 kts | 331° |
| 2026-05-08 00:52 | 9.86708 | -84.34601 | 6956 ft | 301 kts | 347° |
| 2026-05-08 00:52 | 9.88738 | -84.34855 | 6808 ft | 290 kts | 2° |
| 2026-05-08 00:52 | 9.90695 | -84.34592 | 6694 ft | 278 kts | 17° |
| 2026-05-08 00:52 | 9.92447 | -84.33890 | 6634 ft | 265 kts | 30° |
| 2026-05-08 00:53 | 9.93888 | -84.32879 | 6584 ft | 239 kts | 42° |
| 2026-05-08 00:53 | 9.94973 | -84.31712 | 6540 ft | 220 kts | 53° |
| 2026-05-08 00:53 | 9.95791 | -84.30408 | 6042 ft | 220 kts | 63° |
| 2026-05-08 00:53 | 9.96377 | -84.28970 | 4993 ft | 227 kts | 68° |
| 2026-05-08 00:54 | 9.96969 | -84.27397 | 3832 ft | 236 kts | 70° |
| 2026-05-08 00:54 | 9.97458 | -84.25928 | 3514 ft | 215 kts | 70° |
| 2026-05-08 00:54 | 9.97998 | -84.24553 | 3374 ft | 199 kts | 66° |
| 2026-05-08 00:54 | 9.98486 | -84.23326 | 3254 ft | 177 kts | 69° |
| 2026-05-08 00:55 | 9.98889 | -84.22236 | 3037 ft | 155 kts | 69° |
| 2026-05-08 00:55 | 9.99223 | -84.21344 | 2990 ft | 100 kts | 69° |
| 2026-05-08 00:55 | 9.99363 | -84.20969 | 3015 ft | 20 kts | 70° |
| 2026-05-08 00:55 | 9.99406 | -84.20845 | 3023 ft | 17 kts | 70° |
| 2026-05-08 00:56 | 9.99432 | -84.20772 | 3028 ft | 16 kts | 69° |
| 2026-05-08 00:56 | 9.99489 | -84.20623 | 3031 ft | 21 kts | 69° |
| 2026-05-08 00:56 | 9.99526 | -84.20529 | 3037 ft | 21 kts | 69° |
| 2026-05-08 00:56 | 9.99569 | -84.20440 | 3038 ft | 10 kts | 44° |
| 2026-05-08 00:57 | 9.99603 | -84.20432 | 3036 ft | 4 kts | 356° |
| 2026-05-08 00:57 | 9.99639 | -84.20437 | 3034 ft | 3 kts | 7° |
| 2026-05-08 00:57 | 9.99667 | -84.20410 | 3035 ft | 10 kts | 62° |
| 2026-05-08 00:57 | 9.99675 | -84.20387 | 3035 ft | 3 kts | 70° |
| 2026-05-08 00:58 | 9.99684 | -84.20361 | 3036 ft | 0 kts | 68° |
| 2026-05-08 00:58 | 9.99690 | -84.20362 | 3035 ft | 1 kts | 6° |
| 2026-05-08 00:58 | 9.99702 | -84.20369 | 3036 ft | 5 kts | 339° |
| 2026-05-08 00:58 | 9.99733 | -84.20381 | 3035 ft | 0 kts | 338° |
| 2026-05-08 00:59 | 9.99736 | -84.20383 | 3035 ft | 0 kts | 338° |